Isle of Tiree, United Kingdom
Current Conditions -  °F | °C
As of 8:50 PM on Tuesday 21 Oct 2014 (Local Time) from EGPU Reporting Station
Rain Showers Rain Showers  
Wind Chill:   Ceiling: Unl
Heat Index:   Visibility: 1.8mi
Dew Point:   Wind: 29mph
Humidity: 81%   Direction: 310°NW
Pressure: 29.94"   Gusts: 43mph
Location:  56.51°N, 6.81°W
Report Text: EGPU 211950Z AUTO 31025G37KT 280V340 2900 SHRA SCT029/// 08/05 Q1014
Loading
Personal Weather Stations






























Interactive Weather Map
Tropical Storm Tracking
New forecast layout! Learn more

10-Day Weather Forecast

Advertisements
Track Severe Weather on mobile